PWSweather.com
Personal Weather Stations
Station Observations
ARECO747
Argentina , San Antonio ArecoAR Bs.As

Argentina San Antonio ArecoAR Bs.As

Lat: -34.24447275818, Lon: -59.47654187679

Elevation: 102

Station Type: InformaciĆ³n generada con nuevo Microchip Ethernet conectado a estaciĆ³n WH1081

http://www.meteostar.com.ar

High Low Average
Temperature 96.8°F36.0°C 66.6°F19.2°C 81.5°F27.5°C
Dew Point 69.4°F20.8°C 54.9°F12.7°C 62.2°F16.8°C
Winds 8.3 mph 13.4 kmh Calm Calm 3.0 mph E4.8 kmh E
Wind Gusts 14.5 mph23.3 kmh -- 6.0 mph9.7 kmh
Humidity 91% 27% 57%
Pressure 29.97 in1014.9 mb 29.84 in1010.5 mb -
Precipitation 0.00 in0.0 mm - -
Hour Temp Dew Point Humidity Winds Wind Gusts Pressure Precip Precip Rate Daily Precip Total
12:03 AM 73.4°F23.0°C 63.5°F17.5°C 71% 2.2 mph E3.5 kmh E 4.5 mph7.2 kmh 29.96 in1014.6 mb 0.00 in0.0 mm 0.00 in0.0 mm 0.00 in0.0 mm
12:08 AM 73.4°F23.0°C 63.5°F17.5°C 71% 3.8 mph E6.1 kmh E 5.4 mph8.7 kmh 29.96 in1014.6 mb 0.00 in0.0 mm 0.00 in0.0 mm 0.00 in0.0 mm
12:13 AM 73.4°F23.0°C 63.9°F17.7°C 72% 3.1 mph NE5.0 kmh NE 5.4 mph8.7 kmh 29.96 in1014.6 mb 0.00 in0.0 mm 0.00 in0.0 mm 0.00 in0.0 mm
12:18 AM 73.4°F23.0°C 63.9°F17.7°C 72% 2.2 mph SE3.5 kmh SE 5.4 mph8.7 kmh 29.96 in1014.6 mb 0.00 in0.0 mm 0.00 in0.0 mm 0.00 in0.0 mm
12:23 AM 73.4°F23.0°C 63.9°F17.7°C 72% 3.8 mph E6.1 kmh E 6.0 mph9.7 kmh 29.96 in1014.6 mb 0.00 in0.0 mm 0.00 in0.0 mm 0.00 in0.0 mm
12:28 AM 73.4°F23.0°C 64.2°F17.9°C 73% 3.8 mph E6.1 kmh E 6.9 mph11.1 kmh 29.95 in1014.2 mb 0.00 in0.0 mm 0.00 in0.0 mm 0.00 in0.0 mm
12:34 AM 73.4°F23.0°C 64.2°F17.9°C 73% 2.2 mph NE3.5 kmh NE 6.9 mph11.1 kmh 29.96 in1014.6 mb 0.00 in0.0 mm 0.00 in0.0 mm 0.00 in0.0 mm
12:39 AM 73.4°F23.0°C 64.2°F17.9°C 73% 3.8 mph NE6.1 kmh NE 6.0 mph9.7 kmh 29.95 in1014.2 mb 0.00 in0.0 mm 0.00 in0.0 mm 0.00 in0.0 mm
12:44 AM 73.0°F22.8°C 64.2°F17.9°C 74% 2.2 mph NE3.5 kmh NE 6.9 mph11.1 kmh 29.96 in1014.6 mb 0.00 in0.0 mm 0.00 in0.0 mm 0.00 in0.0 mm
12:49 AM 72.7°F22.6°C 64.2°F17.9°C 75% 3.1 mph E5.0 kmh E 5.4 mph8.7 kmh 29.96 in1014.6 mb 0.00 in0.0 mm 0.00 in0.0 mm 0.00 in0.0 mm
12:54 AM 72.3°F22.4°C 64.4°F18.0°C 76% 2.2 mph NE3.5 kmh NE 5.4 mph8.7 kmh 29.96 in1014.6 mb 0.00 in0.0 mm 0.00 in0.0 mm 0.00 in0.0 mm
12:59 AM 72.0°F22.2°C 64.4°F18.0°C 77% 2.2 mph NE3.5 kmh NE 5.4 mph8.7 kmh 29.96 in1014.6 mb 0.00 in0.0 mm 0.00 in0.0 mm 0.00 in0.0 mm
01:05 AM 71.8°F22.1°C 64.2°F17.9°C 77% 1.6 mph E2.6 kmh E 3.8 mph6.1 kmh 29.96 in1014.6 mb 0.00 in0.0 mm 0.00 in0.0 mm 0.00 in0.0 mm
01:10 AM 71.8°F22.1°C 64.2°F17.9°C 77% 2.2 mph E3.5 kmh E 3.8 mph6.1 kmh 29.96 in1014.6 mb 0.00 in0.0 mm 0.00 in0.0 mm 0.00 in0.0 mm
01:15 AM 72.0°F22.2°C 64.8°F18.2°C 78% 0.7 mph NE1.1 kmh NE 4.5 mph7.2 kmh 29.96 in1014.6 mb 0.00 in0.0 mm 0.00 in0.0 mm 0.00 in0.0 mm
01:20 AM 71.8°F22.1°C 64.6°F18.1°C 78% 1.6 mph E2.6 kmh E 3.8 mph6.1 kmh 29.96 in1014.6 mb 0.00 in0.0 mm 0.00 in0.0 mm 0.00 in0.0 mm
01:25 AM 71.8°F22.1°C 64.6°F18.1°C 78% 1.6 mph NE2.6 kmh NE 3.8 mph6.1 kmh 29.96 in1014.6 mb 0.00 in0.0 mm 0.00 in0.0 mm 0.00 in0.0 mm
01:30 AM 71.8°F22.1°C 64.6°F18.1°C 78% 2.2 mph NE3.5 kmh NE 3.8 mph6.1 kmh 29.96 in1014.6 mb 0.00 in0.0 mm 0.00 in0.0 mm 0.00 in0.0 mm
01:36 AM 71.6°F22.0°C 64.8°F18.2°C 79% 1.6 mph NE2.6 kmh NE 3.8 mph6.1 kmh 29.95 in1014.2 mb 0.00 in0.0 mm 0.00 in0.0 mm 0.00 in0.0 mm
01:41 AM 71.4°F21.9°C 64.6°F18.1°C 79% 1.6 mph NE2.6 kmh NE 3.1 mph5.0 kmh 29.96 in1014.6 mb 0.00 in0.0 mm 0.00 in0.0 mm 0.00 in0.0 mm
01:46 AM 71.4°F21.9°C 64.9°F18.3°C 80% 3.1 mph NE5.0 kmh NE 3.8 mph6.1 kmh 29.95 in1014.2 mb 0.00 in0.0 mm 0.00 in0.0 mm 0.00 in0.0 mm
01:51 AM 71.4°F21.9°C 64.9°F18.3°C 80% 2.2 mph ENE3.5 kmh ENE 3.8 mph6.1 kmh 29.95 in1014.2 mb 0.00 in0.0 mm 0.00 in0.0 mm 0.00 in0.0 mm
01:56 AM 71.4°F21.9°C 64.9°F18.3°C 80% 1.6 mph E2.6 kmh E 3.1 mph5.0 kmh 29.95 in1014.2 mb 0.00 in0.0 mm 0.00 in0.0 mm 0.00 in0.0 mm
02:02 AM 71.4°F21.9°C 64.9°F18.3°C 80% 1.6 mph E2.6 kmh E -- 29.95 in1014.2 mb 0.00 in0.0 mm 0.00 in0.0 mm 0.00 in0.0 mm
02:04 AM 71.4°F21.9°C 64.9°F18.3°C 80% 1.6 mph E2.6 kmh E -- 29.95 in1014.2 mb 0.00 in0.0 mm 0.00 in0.0 mm 0.00 in0.0 mm
02:10 AM 71.4°F21.9°C 64.9°F18.3°C 80% 0.7 mph NE1.1 kmh NE 3.8 mph6.1 kmh 29.95 in1014.2 mb 0.00 in0.0 mm 0.00 in0.0 mm 0.00 in0.0 mm
02:15 AM 71.4°F21.9°C 64.9°F18.3°C 80% 0.7 mph E1.1 kmh E 2.2 mph3.5 kmh 29.95 in1014.2 mb 0.00 in0.0 mm 0.00 in0.0 mm 0.00 in0.0 mm
02:20 AM 71.2°F21.8°C 65.1°F18.4°C 81% 0.7 mph NE1.1 kmh NE 2.2 mph3.5 kmh 29.95 in1014.2 mb 0.00 in0.0 mm 0.00 in0.0 mm 0.00 in0.0 mm
02:25 AM 71.1°F21.7°C 64.9°F18.3°C 81% 0.7 mph 1.1 kmh 2.2 mph3.5 kmh 29.94 in1013.9 mb 0.00 in0.0 mm 0.00 in0.0 mm 0.00 in0.0 mm
02:30 AM 70.7°F21.5°C 64.6°F18.1°C 81% 0.7 mph ENE1.1 kmh ENE 2.2 mph3.5 kmh 29.94 in1013.9 mb 0.00 in0.0 mm 0.00 in0.0 mm 0.00 in0.0 mm
02:35 AM 70.5°F21.4°C 64.0°F17.8°C 80% 1.6 mph E2.6 kmh E 3.1 mph5.0 kmh 29.94 in1013.9 mb 0.00 in0.0 mm 0.00 in0.0 mm 0.00 in0.0 mm
02:41 AM 70.5°F21.4°C 64.4°F18.0°C 81% Calm Calm 3.1 mph5.0 kmh 29.94 in1013.9 mb 0.00 in0.0 mm 0.00 in0.0 mm 0.00 in0.0 mm
02:46 AM 70.0°F21.1°C 63.9°F17.7°C 81% Calm Calm 0.7 mph1.1 kmh 29.94 in1013.9 mb 0.00 in0.0 mm 0.00 in0.0 mm 0.00 in0.0 mm
02:51 AM 69.8°F21.0°C 63.7°F17.6°C 81% Calm Calm 0.7 mph1.1 kmh 29.94 in1013.9 mb 0.00 in0.0 mm 0.00 in0.0 mm 0.00 in0.0 mm
02:56 AM 69.6°F20.9°C 63.5°F17.5°C 81% 0.7 mph NW1.1 kmh NW 1.6 mph2.6 kmh 29.94 in1013.9 mb 0.00 in0.0 mm 0.00 in0.0 mm 0.00 in0.0 mm
03:01 AM 68.9°F20.5°C 62.8°F17.1°C 81% Calm Calm 2.2 mph3.5 kmh 29.94 in1013.9 mb 0.00 in0.0 mm 0.00 in0.0 mm 0.00 in0.0 mm
03:07 AM 68.7°F20.4°C 63.0°F17.2°C 82% Calm Calm 0.7 mph1.1 kmh 29.94 in1013.9 mb 0.00 in0.0 mm 0.00 in0.0 mm 0.00 in0.0 mm
03:12 AM 68.2°F20.1°C 62.8°F17.1°C 83% Calm Calm 3.1 mph5.0 kmh 29.94 in1013.9 mb 0.00 in0.0 mm 0.00 in0.0 mm 0.00 in0.0 mm
03:17 AM 68.2°F20.1°C 63.1°F17.3°C 84% 0.7 mph E1.1 kmh E 2.2 mph3.5 kmh 29.94 in1013.9 mb 0.00 in0.0 mm 0.00 in0.0 mm 0.00 in0.0 mm
03:22 AM 68.9°F20.5°C 63.5°F17.5°C 83% Calm Calm 3.1 mph5.0 kmh 29.93 in1013.5 mb 0.00 in0.0 mm 0.00 in0.0 mm 0.00 in0.0 mm
03:27 AM 68.9°F20.5°C 63.5°F17.5°C 83% 0.7 mph E1.1 kmh E 1.6 mph2.6 kmh 29.93 in1013.5 mb 0.00 in0.0 mm 0.00 in0.0 mm 0.00 in0.0 mm
03:32 AM 68.9°F20.5°C 63.5°F17.5°C 83% Calm Calm 1.6 mph2.6 kmh 29.93 in1013.5 mb 0.00 in0.0 mm 0.00 in0.0 mm 0.00 in0.0 mm
03:38 AM 68.7°F20.4°C 63.3°F17.4°C 83% Calm Calm 1.6 mph2.6 kmh 29.93 in1013.5 mb 0.00 in0.0 mm 0.00 in0.0 mm 0.00 in0.0 mm
03:43 AM 68.2°F20.1°C 62.8°F17.1°C 83% 0.7 mph SW1.1 kmh SW 1.6 mph2.6 kmh 29.93 in1013.5 mb 0.00 in0.0 mm 0.00 in0.0 mm 0.00 in0.0 mm
03:48 AM 67.5°F19.7°C 62.1°F16.7°C 83% Calm Calm 1.6 mph2.6 kmh 29.93 in1013.5 mb 0.00 in0.0 mm 0.00 in0.0 mm 0.00 in0.0 mm
03:53 AM 67.3°F19.6°C 62.2°F16.8°C 84% Calm Calm 0.7 mph1.1 kmh 29.93 in1013.5 mb 0.00 in0.0 mm 0.00 in0.0 mm 0.00 in0.0 mm
03:58 AM 67.1°F19.5°C 62.1°F16.7°C 84% 0.7 mph NE1.1 kmh NE 2.2 mph3.5 kmh 29.93 in1013.5 mb 0.00 in0.0 mm 0.00 in0.0 mm 0.00 in0.0 mm
04:03 AM 67.5°F19.7°C 62.8°F17.1°C 85% Calm Calm 1.6 mph2.6 kmh 29.93 in1013.5 mb 0.00 in0.0 mm 0.00 in0.0 mm 0.00 in0.0 mm
04:09 AM 67.6°F19.8°C 63.3°F17.4°C 86% 0.7 mph E1.1 kmh E 3.1 mph5.0 kmh 29.93 in1013.5 mb 0.00 in0.0 mm 0.00 in0.0 mm 0.00 in0.0 mm
04:14 AM 68.2°F20.1°C 63.9°F17.7°C 86% Calm Calm 3.1 mph5.0 kmh 29.93 in1013.5 mb 0.00 in0.0 mm 0.00 in0.0 mm 0.00 in0.0 mm
04:19 AM 67.6°F19.8°C 63.0°F17.2°C 85% 0.7 mph SW1.1 kmh SW 1.6 mph2.6 kmh 29.93 in1013.5 mb 0.00 in0.0 mm 0.00 in0.0 mm 0.00 in0.0 mm
04:24 AM 67.1°F19.5°C 62.1°F16.7°C 84% Calm Calm 1.6 mph2.6 kmh 29.93 in1013.5 mb 0.00 in0.0 mm 0.00 in0.0 mm 0.00 in0.0 mm
04:29 AM 67.1°F19.5°C 62.4°F16.9°C 85% 1.6 mph SE2.6 kmh SE 2.2 mph3.5 kmh 29.93 in1013.5 mb 0.00 in0.0 mm 0.00 in0.0 mm 0.00 in0.0 mm
04:34 AM 67.6°F19.8°C 63.3°F17.4°C 86% 0.7 mph SE1.1 kmh SE 3.8 mph6.1 kmh 29.93 in1013.5 mb 0.00 in0.0 mm 0.00 in0.0 mm 0.00 in0.0 mm
04:40 AM 67.8°F19.9°C 63.5°F17.5°C 86% 0.7 mph SE1.1 kmh SE 3.8 mph6.1 kmh 29.93 in1013.5 mb 0.00 in0.0 mm 0.00 in0.0 mm 0.00 in0.0 mm
04:45 AM 67.8°F19.9°C 63.5°F17.5°C 86% Calm Calm 2.2 mph3.5 kmh 29.93 in1013.5 mb 0.00 in0.0 mm 0.00 in0.0 mm 0.00 in0.0 mm
04:50 AM 67.5°F19.7°C 63.1°F17.3°C 86% Calm Calm 2.2 mph3.5 kmh 29.93 in1013.5 mb 0.00 in0.0 mm 0.00 in0.0 mm 0.00 in0.0 mm
04:55 AM 67.5°F19.7°C 63.1°F17.3°C 86% 1.6 mph SE2.6 kmh SE 3.1 mph5.0 kmh 29.93 in1013.5 mb 0.00 in0.0 mm 0.00 in0.0 mm 0.00 in0.0 mm
05:00 AM 67.5°F19.7°C 63.5°F17.5°C 87% 0.7 mph SE1.1 kmh SE 3.1 mph5.0 kmh 29.93 in1013.5 mb 0.00 in0.0 mm 0.00 in0.0 mm 0.00 in0.0 mm
05:05 AM 67.3°F19.6°C 63.7°F17.6°C 88% 1.6 mph SE2.6 kmh SE 3.8 mph6.1 kmh 29.93 in1013.5 mb 0.00 in0.0 mm 0.00 in0.0 mm 0.00 in0.0 mm
05:11 AM 67.3°F19.6°C 63.7°F17.6°C 88% 0.7 mph SE1.1 kmh SE 3.1 mph5.0 kmh 29.93 in1013.5 mb 0.00 in0.0 mm 0.00 in0.0 mm 0.00 in0.0 mm
05:16 AM 67.1°F19.5°C 63.7°F17.6°C 89% 1.6 mph SE2.6 kmh SE 3.8 mph6.1 kmh 29.93 in1013.5 mb 0.00 in0.0 mm 0.00 in0.0 mm 0.00 in0.0 mm
05:21 AM 67.3°F19.6°C 63.9°F17.7°C 89% 2.2 mph E3.5 kmh E 3.8 mph6.1 kmh 29.93 in1013.5 mb 0.00 in0.0 mm 0.00 in0.0 mm 0.00 in0.0 mm
05:26 AM 67.5°F19.7°C 64.0°F17.8°C 89% 2.2 mph E3.5 kmh E 4.5 mph7.2 kmh 29.94 in1013.9 mb 0.00 in0.0 mm 0.00 in0.0 mm 0.00 in0.0 mm
05:31 AM 67.5°F19.7°C 64.0°F17.8°C 89% 1.6 mph E2.6 kmh E 3.8 mph6.1 kmh 29.94 in1013.9 mb 0.00 in0.0 mm 0.00 in0.0 mm 0.00 in0.0 mm
05:36 AM 67.3°F19.6°C 63.9°F17.7°C 89% 1.6 mph SE2.6 kmh SE 3.8 mph6.1 kmh 29.94 in1013.9 mb 0.00 in0.0 mm 0.00 in0.0 mm 0.00 in0.0 mm
05:42 AM 67.3°F19.6°C 63.9°F17.7°C 89% 2.2 mph SE3.5 kmh SE 3.8 mph6.1 kmh 29.94 in1013.9 mb 0.00 in0.0 mm 0.00 in0.0 mm 0.00 in0.0 mm
05:47 AM 67.1°F19.5°C 63.7°F17.6°C 89% 1.6 mph E2.6 kmh E 4.5 mph7.2 kmh 29.94 in1013.9 mb 0.00 in0.0 mm 0.00 in0.0 mm 0.00 in0.0 mm
05:52 AM 66.9°F19.4°C 63.9°F17.7°C 90% 1.6 mph SE2.6 kmh SE 4.5 mph7.2 kmh 29.94 in1013.9 mb 0.00 in0.0 mm 0.00 in0.0 mm 0.00 in0.0 mm
05:57 AM 66.9°F19.4°C 63.9°F17.7°C 90% 2.2 mph SE3.5 kmh SE 3.8 mph6.1 kmh 29.94 in1013.9 mb 0.00 in0.0 mm 0.00 in0.0 mm 0.00 in0.0 mm
06:02 AM 66.9°F19.4°C 63.9°F17.7°C 90% 2.2 mph S3.5 kmh S 3.8 mph6.1 kmh 29.95 in1014.2 mb 0.00 in0.0 mm 0.00 in0.0 mm 0.00 in0.0 mm
06:07 AM 66.7°F19.3°C 63.7°F17.6°C 90% 0.7 mph S1.1 kmh S 3.1 mph5.0 kmh 29.95 in1014.2 mb 0.00 in0.0 mm 0.00 in0.0 mm 0.00 in0.0 mm
06:13 AM 66.7°F19.3°C 63.7°F17.6°C 90% 2.2 mph SE3.5 kmh SE 3.8 mph6.1 kmh 29.95 in1014.2 mb 0.00 in0.0 mm 0.00 in0.0 mm 0.00 in0.0 mm
06:18 AM 66.7°F19.3°C 63.7°F17.6°C 90% 3.1 mph SE5.0 kmh SE 3.8 mph6.1 kmh 29.95 in1014.2 mb 0.00 in0.0 mm 0.00 in0.0 mm 0.00 in0.0 mm
06:23 AM 66.6°F19.2°C 63.5°F17.5°C 90% 2.2 mph E3.5 kmh E 4.5 mph7.2 kmh 29.95 in1014.2 mb 0.00 in0.0 mm 0.00 in0.0 mm 0.00 in0.0 mm
06:28 AM 66.6°F19.2°C 63.5°F17.5°C 90% 0.7 mph E1.1 kmh E 3.8 mph6.1 kmh 29.95 in1014.2 mb 0.00 in0.0 mm 0.00 in0.0 mm 0.00 in0.0 mm
06:33 AM 66.6°F19.2°C 63.5°F17.5°C 90% 2.2 mph E3.5 kmh E 3.8 mph6.1 kmh 29.95 in1014.2 mb 0.00 in0.0 mm 0.00 in0.0 mm 0.00 in0.0 mm
06:38 AM 66.7°F19.3°C 64.0°F17.8°C 91% 3.1 mph SE5.0 kmh SE 4.5 mph7.2 kmh 29.95 in1014.2 mb 0.00 in0.0 mm 0.00 in0.0 mm 0.00 in0.0 mm
06:44 AM 67.1°F19.5°C 64.0°F17.8°C 90% 2.2 mph SE3.5 kmh SE 4.5 mph7.2 kmh 29.95 in1014.2 mb 0.00 in0.0 mm 0.00 in0.0 mm 0.00 in0.0 mm
06:49 AM 67.6°F19.8°C 64.2°F17.9°C 89% 1.6 mph SSE2.6 kmh SSE 3.8 mph6.1 kmh 29.95 in1014.2 mb 0.00 in0.0 mm 0.00 in0.0 mm 0.00 in0.0 mm
06:54 AM 68.2°F20.1°C 64.8°F18.2°C 89% 1.6 mph SE2.6 kmh SE 3.8 mph6.1 kmh 29.95 in1014.2 mb 0.00 in0.0 mm 0.00 in0.0 mm 0.00 in0.0 mm
06:59 AM 68.5°F20.3°C 64.8°F18.2°C 88% 3.1 mph E5.0 kmh E 4.5 mph7.2 kmh 29.96 in1014.6 mb 0.00 in0.0 mm 0.00 in0.0 mm 0.00 in0.0 mm
07:04 AM 69.3°F20.7°C 64.6°F18.1°C 85% 2.2 mph E3.5 kmh E 4.5 mph7.2 kmh 29.95 in1014.2 mb 0.00 in0.0 mm 0.00 in0.0 mm 0.00 in0.0 mm
07:09 AM 70.2°F21.2°C 65.1°F18.4°C 84% 3.1 mph E5.0 kmh E 3.8 mph6.1 kmh 29.95 in1014.2 mb 0.00 in0.0 mm 0.00 in0.0 mm 0.00 in0.0 mm
07:15 AM 70.3°F21.3°C 64.6°F18.1°C 82% 3.1 mph S5.0 kmh S 4.5 mph7.2 kmh 29.95 in1014.2 mb 0.00 in0.0 mm 0.00 in0.0 mm 0.00 in0.0 mm
07:20 AM 70.3°F21.3°C 64.2°F17.9°C 81% 3.1 mph SE5.0 kmh SE 5.4 mph8.7 kmh 29.96 in1014.6 mb 0.00 in0.0 mm 0.00 in0.0 mm 0.00 in0.0 mm
07:25 AM 71.2°F21.8°C 65.8°F18.8°C 83% 3.1 mph SE5.0 kmh SE 4.5 mph7.2 kmh 29.95 in1014.2 mb 0.00 in0.0 mm 0.00 in0.0 mm 0.00 in0.0 mm
07:30 AM 71.8°F22.1°C 66.0°F18.9°C 82% 1.6 mph ENE2.6 kmh ENE 4.5 mph7.2 kmh 29.95 in1014.2 mb 0.00 in0.0 mm 0.00 in0.0 mm 0.00 in0.0 mm
07:35 AM 72.9°F22.7°C 66.4°F19.1°C 80% 2.2 mph E3.5 kmh E 3.8 mph6.1 kmh 29.96 in1014.6 mb 0.00 in0.0 mm 0.00 in0.0 mm 0.00 in0.0 mm
07:40 AM 73.0°F22.8°C 65.5°F18.6°C 77% 3.8 mph SE6.1 kmh SE 5.4 mph8.7 kmh 29.96 in1014.6 mb 0.00 in0.0 mm 0.00 in0.0 mm 0.00 in0.0 mm
07:46 AM 73.4°F23.0°C 65.7°F18.7°C 77% 1.6 mph SE2.6 kmh SE 5.4 mph8.7 kmh 29.95 in1014.2 mb 0.00 in0.0 mm 0.00 in0.0 mm 0.00 in0.0 mm
07:51 AM 74.3°F23.5°C 65.8°F18.8°C 75% 1.6 mph NE2.6 kmh NE 4.5 mph7.2 kmh 29.96 in1014.6 mb 0.00 in0.0 mm 0.00 in0.0 mm 0.00 in0.0 mm
07:56 AM 74.7°F23.7°C 65.5°F18.6°C 73% 2.2 mph E3.5 kmh E 6.0 mph9.7 kmh 29.95 in1014.2 mb 0.00 in0.0 mm 0.00 in0.0 mm 0.00 in0.0 mm
08:01 AM 75.0°F23.9°C 65.3°F18.5°C 72% 3.1 mph NE5.0 kmh NE 5.4 mph8.7 kmh 29.96 in1014.6 mb 0.00 in0.0 mm 0.00 in0.0 mm 0.00 in0.0 mm
08:06 AM 75.4°F24.1°C 65.7°F18.7°C 72% 3.1 mph E5.0 kmh E 6.0 mph9.7 kmh 29.96 in1014.6 mb 0.00 in0.0 mm 0.00 in0.0 mm 0.00 in0.0 mm
08:11 AM 75.9°F24.4°C 65.8°F18.8°C 71% 4.5 mph ENE7.2 kmh ENE 6.9 mph11.1 kmh 29.96 in1014.6 mb 0.00 in0.0 mm 0.00 in0.0 mm 0.00 in0.0 mm
08:17 AM 76.1°F24.5°C 65.1°F18.4°C 69% 3.8 mph E6.1 kmh E 5.4 mph8.7 kmh 29.96 in1014.6 mb 0.00 in0.0 mm 0.00 in0.0 mm 0.00 in0.0 mm
08:22 AM 76.3°F24.6°C 65.3°F18.5°C 69% 3.1 mph E5.0 kmh E 5.4 mph8.7 kmh 29.96 in1014.6 mb 0.00 in0.0 mm 0.00 in0.0 mm 0.00 in0.0 mm
08:27 AM 76.8°F24.9°C 65.8°F18.8°C 69% 3.8 mph E6.1 kmh E 6.0 mph9.7 kmh 29.96 in1014.6 mb 0.00 in0.0 mm 0.00 in0.0 mm 0.00 in0.0 mm
08:32 AM 76.8°F24.9°C 65.8°F18.8°C 69% 3.1 mph NE5.0 kmh NE 6.9 mph11.1 kmh 29.96 in1014.6 mb 0.00 in0.0 mm 0.00 in0.0 mm 0.00 in0.0 mm
08:37 AM 76.8°F24.9°C 65.8°F18.8°C 69% 3.8 mph NE6.1 kmh NE 5.4 mph8.7 kmh 29.96 in1014.6 mb 0.00 in0.0 mm 0.00 in0.0 mm 0.00 in0.0 mm
08:42 AM 77.5°F25.3°C 66.6°F19.2°C 69% Calm Calm 6.0 mph9.7 kmh 29.97 in1014.9 mb 0.00 in0.0 mm 0.00 in0.0 mm 0.00 in0.0 mm
08:48 AM 78.4°F25.8°C 66.6°F19.2°C 67% 1.6 mph E2.6 kmh E 5.4 mph8.7 kmh 29.96 in1014.6 mb 0.00 in0.0 mm 0.00 in0.0 mm 0.00 in0.0 mm
08:53 AM 79.0°F26.1°C 67.1°F19.5°C 67% 4.5 mph E7.2 kmh E 6.0 mph9.7 kmh 29.96 in1014.6 mb 0.00 in0.0 mm 0.00 in0.0 mm 0.00 in0.0 mm
08:58 AM 79.7°F26.5°C 66.9°F19.4°C 65% 2.2 mph NE3.5 kmh NE 6.0 mph9.7 kmh 29.96 in1014.6 mb 0.00 in0.0 mm 0.00 in0.0 mm 0.00 in0.0 mm
09:03 AM 79.3°F26.3°C 66.6°F19.2°C 65% 3.8 mph SW6.1 kmh SW 8.3 mph13.4 kmh 29.96 in1014.6 mb 0.00 in0.0 mm 0.00 in0.0 mm 0.00 in0.0 mm
09:08 AM 79.7°F26.5°C 66.9°F19.4°C 65% 3.1 mph NE5.0 kmh NE 6.0 mph9.7 kmh 29.96 in1014.6 mb 0.00 in0.0 mm 0.00 in0.0 mm 0.00 in0.0 mm
09:14 AM 80.6°F27.0°C 67.3°F19.6°C 64% 3.1 mph ENE5.0 kmh ENE 5.4 mph8.7 kmh 29.96 in1014.6 mb 0.00 in0.0 mm 0.00 in0.0 mm 0.00 in0.0 mm
09:19 AM 81.9°F27.7°C 67.6°F19.8°C 62% Calm Calm 5.4 mph8.7 kmh 29.96 in1014.6 mb 0.00 in0.0 mm 0.00 in0.0 mm 0.00 in0.0 mm
09:24 AM 83.3°F28.5°C 68.0°F20.0°C 60% 3.1 mph 5.0 kmh 4.5 mph7.2 kmh 29.96 in1014.6 mb 0.00 in0.0 mm 0.00 in0.0 mm 0.00 in0.0 mm
09:29 AM 84.9°F29.4°C 69.4°F20.8°C 60% 0.7 mph NW1.1 kmh NW 4.5 mph7.2 kmh 29.96 in1014.6 mb 0.00 in0.0 mm 0.00 in0.0 mm 0.00 in0.0 mm
09:34 AM 85.3°F29.6°C 67.3°F19.6°C 55% 1.6 mph E2.6 kmh E 4.5 mph7.2 kmh 29.95 in1014.2 mb 0.00 in0.0 mm 0.00 in0.0 mm 0.00 in0.0 mm
09:39 AM 85.1°F29.5°C 66.6°F19.2°C 54% 2.2 mph 3.5 kmh 5.4 mph8.7 kmh 29.96 in1014.6 mb 0.00 in0.0 mm 0.00 in0.0 mm 0.00 in0.0 mm
09:45 AM 85.6°F29.8°C 67.1°F19.5°C 54% 3.1 mph NE5.0 kmh NE 4.5 mph7.2 kmh 29.95 in1014.2 mb 0.00 in0.0 mm 0.00 in0.0 mm 0.00 in0.0 mm
09:50 AM 85.1°F29.5°C 66.6°F19.2°C 54% 1.6 mph 2.6 kmh 4.5 mph7.2 kmh 29.95 in1014.2 mb 0.00 in0.0 mm 0.00 in0.0 mm 0.00 in0.0 mm
09:55 AM 85.8°F29.9°C 66.7°F19.3°C 53% 2.2 mph NW3.5 kmh NW 4.5 mph7.2 kmh 29.95 in1014.2 mb 0.00 in0.0 mm 0.00 in0.0 mm 0.00 in0.0 mm
10:00 AM 86.7°F30.4°C 67.5°F19.7°C 53% 1.6 mph S2.6 kmh S 4.5 mph7.2 kmh 29.95 in1014.2 mb 0.00 in0.0 mm 0.00 in0.0 mm 0.00 in0.0 mm
10:05 AM 86.4°F30.2°C 66.7°F19.3°C 52% 2.2 mph SE3.5 kmh SE 5.4 mph8.7 kmh 29.95 in1014.2 mb 0.00 in0.0 mm 0.00 in0.0 mm 0.00 in0.0 mm
10:10 AM 86.7°F30.4°C 66.9°F19.4°C 52% 3.1 mph NE5.0 kmh NE 5.4 mph8.7 kmh 29.95 in1014.2 mb 0.00 in0.0 mm 0.00 in0.0 mm 0.00 in0.0 mm
10:16 AM 87.3°F30.7°C 66.9°F19.4°C 51% 1.6 mph NW2.6 kmh NW 4.5 mph7.2 kmh 29.95 in1014.2 mb 0.00 in0.0 mm 0.00 in0.0 mm 0.00 in0.0 mm
10:21 AM 88.0°F31.1°C 66.9°F19.4°C 50% 4.5 mph NNW7.2 kmh NNW 6.9 mph11.1 kmh 29.95 in1014.2 mb 0.00 in0.0 mm 0.00 in0.0 mm 0.00 in0.0 mm
10:26 AM 86.5°F30.3°C 66.7°F19.3°C 52% 2.2 mph E3.5 kmh E 6.9 mph11.1 kmh 29.95 in1014.2 mb 0.00 in0.0 mm 0.00 in0.0 mm 0.00 in0.0 mm
10:31 AM 86.9°F30.5°C 66.6°F19.2°C 51% 3.1 mph ENE5.0 kmh ENE 6.0 mph9.7 kmh 29.94 in1013.9 mb 0.00 in0.0 mm 0.00 in0.0 mm 0.00 in0.0 mm
10:36 AM 87.3°F30.7°C 65.1°F18.4°C 48% 5.4 mph NE8.7 kmh NE 7.6 mph12.2 kmh 29.94 in1013.9 mb 0.00 in0.0 mm 0.00 in0.0 mm 0.00 in0.0 mm
10:41 AM 86.9°F30.5°C 64.8°F18.2°C 48% 3.1 mph NE5.0 kmh NE 6.9 mph11.1 kmh 29.94 in1013.9 mb 0.00 in0.0 mm 0.00 in0.0 mm 0.00 in0.0 mm
10:47 AM 87.1°F30.6°C 64.9°F18.3°C 48% 2.2 mph SE3.5 kmh SE 6.0 mph9.7 kmh 29.94 in1013.9 mb 0.00 in0.0 mm 0.00 in0.0 mm 0.00 in0.0 mm
10:52 AM 87.3°F30.7°C 64.0°F17.8°C 46% 3.8 mph 6.1 kmh 6.9 mph11.1 kmh 29.94 in1013.9 mb 0.00 in0.0 mm 0.00 in0.0 mm 0.00 in0.0 mm
10:57 AM 87.4°F30.8°C 64.0°F17.8°C 46% 5.4 mph 8.7 kmh 6.9 mph11.1 kmh 29.94 in1013.9 mb 0.00 in0.0 mm 0.00 in0.0 mm 0.00 in0.0 mm
11:02 AM 88.0°F31.1°C 64.0°F17.8°C 45% 6.0 mph E9.7 kmh E 9.2 mph14.8 kmh 29.94 in1013.9 mb 0.00 in0.0 mm 0.00 in0.0 mm 0.00 in0.0 mm
11:07 AM 87.4°F30.8°C 62.8°F17.1°C 44% 6.0 mph NE9.7 kmh NE 9.2 mph14.8 kmh 29.94 in1013.9 mb 0.00 in0.0 mm 0.00 in0.0 mm 0.00 in0.0 mm
11:12 AM 88.0°F31.1°C 63.3°F17.4°C 44% 5.4 mph NE8.7 kmh NE 8.3 mph13.4 kmh 29.94 in1013.9 mb 0.00 in0.0 mm 0.00 in0.0 mm 0.00 in0.0 mm
11:18 AM 87.8°F31.0°C 63.9°F17.7°C 45% 6.9 mph E11.1 kmh E 9.8 mph15.8 kmh 29.94 in1013.9 mb 0.00 in0.0 mm 0.00 in0.0 mm 0.00 in0.0 mm
11:23 AM 87.3°F30.7°C 63.3°F17.4°C 45% 3.8 mph 6.1 kmh 10.7 mph17.2 kmh 29.94 in1013.9 mb 0.00 in0.0 mm 0.00 in0.0 mm 0.00 in0.0 mm
11:28 AM 88.0°F31.1°C 64.6°F18.1°C 46% 5.4 mph NE8.7 kmh NE 8.3 mph13.4 kmh 29.94 in1013.9 mb 0.00 in0.0 mm 0.00 in0.0 mm 0.00 in0.0 mm
11:33 AM 88.9°F31.6°C 64.8°F18.2°C 45% 5.4 mph SE8.7 kmh SE 8.3 mph13.4 kmh 29.93 in1013.5 mb 0.00 in0.0 mm 0.00 in0.0 mm 0.00 in0.0 mm
11:38 AM 88.0°F31.1°C 64.6°F18.1°C 46% 4.5 mph ENE7.2 kmh ENE 8.3 mph13.4 kmh 29.93 in1013.5 mb 0.00 in0.0 mm 0.00 in0.0 mm 0.00 in0.0 mm
11:43 AM 89.8°F32.1°C 65.7°F18.7°C 45% 2.2 mph E3.5 kmh E 5.4 mph8.7 kmh 29.93 in1013.5 mb 0.00 in0.0 mm 0.00 in0.0 mm 0.00 in0.0 mm
11:49 AM 89.1°F31.7°C 63.7°F17.6°C 43% 3.1 mph E5.0 kmh E 13.0 mph20.9 kmh 29.93 in1013.5 mb 0.00 in0.0 mm 0.00 in0.0 mm 0.00 in0.0 mm
11:54 AM 88.9°F31.6°C 64.2°F17.9°C 44% 3.8 mph NE6.1 kmh NE 7.6 mph12.2 kmh 29.93 in1013.5 mb 0.00 in0.0 mm 0.00 in0.0 mm 0.00 in0.0 mm
11:59 AM 89.2°F31.8°C 63.9°F17.7°C 43% 6.0 mph NE9.7 kmh NE 9.8 mph15.8 kmh 29.93 in1013.5 mb 0.00 in0.0 mm 0.00 in0.0 mm 0.00 in0.0 mm
12:04 PM 89.2°F31.8°C 63.9°F17.7°C 43% 3.1 mph 5.0 kmh 10.7 mph17.2 kmh 29.93 in1013.5 mb 0.00 in0.0 mm 0.00 in0.0 mm 0.00 in0.0 mm
12:09 PM 90.9°F32.7°C 64.6°F18.1°C 42% 6.0 mph NE9.7 kmh NE 8.3 mph13.4 kmh 29.92 in1013.2 mb 0.00 in0.0 mm 0.00 in0.0 mm 0.00 in0.0 mm
12:14 PM 90.0°F32.2°C 64.4°F18.0°C 43% 3.8 mph NNE6.1 kmh NNE 13.0 mph20.9 kmh 29.92 in1013.2 mb 0.00 in0.0 mm 0.00 in0.0 mm 0.00 in0.0 mm
12:20 PM 90.5°F32.5°C 63.5°F17.5°C 41% 4.5 mph 7.2 kmh 7.6 mph12.2 kmh 29.92 in1013.2 mb 0.00 in0.0 mm 0.00 in0.0 mm 0.00 in0.0 mm
12:25 PM 91.8°F33.2°C 64.8°F18.2°C 41% 1.6 mph E2.6 kmh E 4.5 mph7.2 kmh 29.92 in1013.2 mb 0.00 in0.0 mm 0.00 in0.0 mm 0.00 in0.0 mm
12:30 PM 92.3°F33.5°C 64.4°F18.0°C 40% 3.1 mph NE5.0 kmh NE 6.9 mph11.1 kmh 29.92 in1013.2 mb 0.00 in0.0 mm 0.00 in0.0 mm 0.00 in0.0 mm
12:35 PM 91.4°F33.0°C 64.4°F18.0°C 41% 3.8 mph NE6.1 kmh NE 11.4 mph18.3 kmh 29.91 in1012.9 mb 0.00 in0.0 mm 0.00 in0.0 mm 0.00 in0.0 mm
12:40 PM 91.0°F32.8°C 64.0°F17.8°C 41% 6.9 mph NE11.1 kmh NE 9.8 mph15.8 kmh 29.91 in1012.9 mb 0.00 in0.0 mm 0.00 in0.0 mm 0.00 in0.0 mm
12:45 PM 90.7°F32.6°C 61.5°F16.4°C 38% 6.9 mph E11.1 kmh E 13.6 mph21.9 kmh 29.91 in1012.9 mb 0.00 in0.0 mm 0.00 in0.0 mm 0.00 in0.0 mm
12:51 PM 91.0°F32.8°C 62.6°F17.0°C 39% 3.8 mph E6.1 kmh E 10.7 mph17.2 kmh 29.91 in1012.9 mb 0.00 in0.0 mm 0.00 in0.0 mm 0.00 in0.0 mm
12:56 PM 91.8°F33.2°C 63.3°F17.4°C 39% 6.0 mph ENE9.7 kmh ENE 11.4 mph18.3 kmh 29.91 in1012.9 mb 0.00 in0.0 mm 0.00 in0.0 mm 0.00 in0.0 mm
01:01 PM 91.6°F33.1°C 63.1°F17.3°C 39% 5.4 mph NE8.7 kmh NE 13.0 mph20.9 kmh 29.91 in1012.9 mb 0.00 in0.0 mm 0.00 in0.0 mm 0.00 in0.0 mm
01:06 PM 91.8°F33.2°C 62.6°F17.0°C 38% 5.4 mph NE8.7 kmh NE 11.4 mph18.3 kmh 29.91 in1012.9 mb 0.00 in0.0 mm 0.00 in0.0 mm 0.00 in0.0 mm
01:11 PM 92.1°F33.4°C 62.8°F17.1°C 38% 6.0 mph 9.7 kmh 14.5 mph23.3 kmh 29.91 in1012.9 mb 0.00 in0.0 mm 0.00 in0.0 mm 0.00 in0.0 mm
01:16 PM 91.8°F33.2°C 61.7°F16.5°C 37% 4.5 mph NW7.2 kmh NW 12.1 mph19.5 kmh 29.91 in1012.9 mb 0.00 in0.0 mm 0.00 in0.0 mm 0.00 in0.0 mm
01:22 PM 92.3°F33.5°C 60.6°F15.9°C 35% 4.5 mph 7.2 kmh 9.2 mph14.8 kmh 29.91 in1012.9 mb 0.00 in0.0 mm 0.00 in0.0 mm 0.00 in0.0 mm
01:27 PM 92.1°F33.4°C 60.4°F15.8°C 35% 8.3 mph NE13.4 kmh NE 13.6 mph21.9 kmh 29.90 in1012.5 mb 0.00 in0.0 mm 0.00 in0.0 mm 0.00 in0.0 mm
01:32 PM 92.3°F33.5°C 59.9°F15.5°C 34% 6.9 mph NNW11.1 kmh NNW 10.7 mph17.2 kmh 29.90 in1012.5 mb 0.00 in0.0 mm 0.00 in0.0 mm 0.00 in0.0 mm
01:37 PM 92.3°F33.5°C 59.0°F15.0°C 33% 3.1 mph E5.0 kmh E 11.4 mph18.3 kmh 29.90 in1012.5 mb 0.00 in0.0 mm 0.00 in0.0 mm 0.00 in0.0 mm
01:42 PM 92.5°F33.6°C 58.3°F14.6°C 32% 3.8 mph NNE6.1 kmh NNE 10.7 mph17.2 kmh 29.90 in1012.5 mb 0.00 in0.0 mm 0.00 in0.0 mm 0.00 in0.0 mm
01:47 PM 92.5°F33.6°C 57.4°F14.1°C 31% 3.1 mph E5.0 kmh E 12.1 mph19.5 kmh 29.89 in1012.2 mb 0.00 in0.0 mm 0.00 in0.0 mm 0.00 in0.0 mm
01:53 PM 93.4°F34.1°C 58.3°F14.6°C 31% 6.9 mph NE11.1 kmh NE 10.7 mph17.2 kmh 29.89 in1012.2 mb 0.00 in0.0 mm 0.00 in0.0 mm 0.00 in0.0 mm
01:58 PM 93.6°F34.2°C 58.5°F14.7°C 31% 6.9 mph 11.1 kmh 11.4 mph18.3 kmh 29.89 in1012.2 mb 0.00 in0.0 mm 0.00 in0.0 mm 0.00 in0.0 mm
02:03 PM 94.3°F34.6°C 59.0°F15.0°C 31% 4.5 mph NE7.2 kmh NE 11.4 mph18.3 kmh 29.89 in1012.2 mb 0.00 in0.0 mm 0.00 in0.0 mm 0.00 in0.0 mm
02:08 PM 93.9°F34.4°C 58.6°F14.8°C 31% 7.6 mph NE12.2 kmh NE 12.1 mph19.5 kmh 29.89 in1012.2 mb 0.00 in0.0 mm 0.00 in0.0 mm 0.00 in0.0 mm
02:13 PM 93.4°F34.1°C 58.3°F14.6°C 31% 6.9 mph E11.1 kmh E 12.1 mph19.5 kmh 29.89 in1012.2 mb 0.00 in0.0 mm 0.00 in0.0 mm 0.00 in0.0 mm
02:18 PM 93.7°F34.3°C 58.5°F14.7°C 31% 3.8 mph 6.1 kmh 10.7 mph17.2 kmh 29.88 in1011.9 mb 0.00 in0.0 mm 0.00 in0.0 mm 0.00 in0.0 mm
02:24 PM 94.5°F34.7°C 58.3°F14.6°C 30% 4.5 mph 7.2 kmh 9.2 mph14.8 kmh 29.89 in1012.2 mb 0.00 in0.0 mm 0.00 in0.0 mm 0.00 in0.0 mm
02:29 PM 94.6°F34.8°C 57.4°F14.1°C 29% 2.2 mph NE3.5 kmh NE 6.0 mph9.7 kmh 29.88 in1011.9 mb 0.00 in0.0 mm 0.00 in0.0 mm 0.00 in0.0 mm
02:34 PM 94.5°F34.7°C 59.2°F15.1°C 31% 6.9 mph NW11.1 kmh NW 10.7 mph17.2 kmh 29.89 in1012.2 mb 0.00 in0.0 mm 0.00 in0.0 mm 0.00 in0.0 mm
02:39 PM 93.7°F34.3°C 58.5°F14.7°C 31% 3.1 mph E5.0 kmh E 7.6 mph12.2 kmh 29.88 in1011.9 mb 0.00 in0.0 mm 0.00 in0.0 mm 0.00 in0.0 mm
02:44 PM 94.3°F34.6°C 59.0°F15.0°C 31% 0.7 mph S1.1 kmh S 7.6 mph12.2 kmh 29.88 in1011.9 mb 0.00 in0.0 mm 0.00 in0.0 mm 0.00 in0.0 mm
02:49 PM 95.7°F35.4°C 59.4°F15.2°C 30% 4.5 mph 7.2 kmh 6.9 mph11.1 kmh 29.88 in1011.9 mb 0.00 in0.0 mm 0.00 in0.0 mm 0.00 in0.0 mm
02:55 PM 95.4°F35.2°C 59.0°F15.0°C 30% 6.9 mph NE11.1 kmh NE 8.3 mph13.4 kmh 29.89 in1012.2 mb 0.00 in0.0 mm 0.00 in0.0 mm 0.00 in0.0 mm
03:00 PM 95.0°F35.0°C 58.6°F14.8°C 30% 6.0 mph 9.7 kmh 8.3 mph13.4 kmh 29.88 in1011.9 mb 0.00 in0.0 mm 0.00 in0.0 mm 0.00 in0.0 mm
03:05 PM 95.5°F35.3°C 59.2°F15.1°C 30% 3.1 mph NW5.0 kmh NW 8.3 mph13.4 kmh 29.88 in1011.9 mb 0.00 in0.0 mm 0.00 in0.0 mm 0.00 in0.0 mm
03:10 PM 95.5°F35.3°C 59.2°F15.1°C 30% 5.4 mph NW8.7 kmh NW 8.3 mph13.4 kmh 29.88 in1011.9 mb 0.00 in0.0 mm 0.00 in0.0 mm 0.00 in0.0 mm
03:15 PM 94.6°F34.8°C 58.5°F14.7°C 30% 6.9 mph NW11.1 kmh NW 11.4 mph18.3 kmh 29.88 in1011.9 mb 0.00 in0.0 mm 0.00 in0.0 mm 0.00 in0.0 mm
03:21 PM 94.5°F34.7°C 57.4°F14.1°C 29% 0.7 mph E1.1 kmh E 8.3 mph13.4 kmh 29.88 in1011.9 mb 0.00 in0.0 mm 0.00 in0.0 mm 0.00 in0.0 mm
03:26 PM 96.1°F35.6°C 58.6°F14.8°C 29% 5.4 mph 8.7 kmh 7.6 mph12.2 kmh 29.87 in1011.5 mb 0.00 in0.0 mm 0.00 in0.0 mm 0.00 in0.0 mm
03:31 PM 96.3°F35.7°C 57.9°F14.4°C 28% 3.1 mph NW5.0 kmh NW 7.6 mph12.2 kmh 29.87 in1011.5 mb 0.00 in0.0 mm 0.00 in0.0 mm 0.00 in0.0 mm
03:36 PM 95.2°F35.1°C 58.8°F14.9°C 30% 5.4 mph NE8.7 kmh NE 10.7 mph17.2 kmh 29.87 in1011.5 mb 0.00 in0.0 mm 0.00 in0.0 mm 0.00 in0.0 mm
03:41 PM 94.5°F34.7°C 57.4°F14.1°C 29% 4.5 mph E7.2 kmh E 8.3 mph13.4 kmh 29.87 in1011.5 mb 0.00 in0.0 mm 0.00 in0.0 mm 0.00 in0.0 mm
03:46 PM 94.8°F34.9°C 58.5°F14.7°C 30% 5.4 mph NE8.7 kmh NE 6.9 mph11.1 kmh 29.87 in1011.5 mb 0.00 in0.0 mm 0.00 in0.0 mm 0.00 in0.0 mm
03:52 PM 95.4°F35.2°C 58.1°F14.5°C 29% 2.2 mph E3.5 kmh E 6.9 mph11.1 kmh 29.87 in1011.5 mb 0.00 in0.0 mm 0.00 in0.0 mm 0.00 in0.0 mm
03:57 PM 95.7°F35.4°C 58.5°F14.7°C 29% 3.8 mph 6.1 kmh 8.3 mph13.4 kmh 29.87 in1011.5 mb 0.00 in0.0 mm 0.00 in0.0 mm 0.00 in0.0 mm
04:02 PM 95.9°F35.5°C 57.6°F14.2°C 28% 6.0 mph NE9.7 kmh NE 8.3 mph13.4 kmh 29.87 in1011.5 mb 0.00 in0.0 mm 0.00 in0.0 mm 0.00 in0.0 mm
04:07 PM 95.0°F35.0°C 57.7°F14.3°C 29% 2.2 mph SE3.5 kmh SE 7.6 mph12.2 kmh 29.86 in1011.2 mb 0.00 in0.0 mm 0.00 in0.0 mm 0.00 in0.0 mm
04:12 PM 95.7°F35.4°C 58.5°F14.7°C 29% 4.5 mph 7.2 kmh 9.2 mph14.8 kmh 29.86 in1011.2 mb 0.00 in0.0 mm 0.00 in0.0 mm 0.00 in0.0 mm
04:17 PM 95.2°F35.1°C 57.9°F14.4°C 29% 3.8 mph NW6.1 kmh NW 9.2 mph14.8 kmh 29.86 in1011.2 mb 0.00 in0.0 mm 0.00 in0.0 mm 0.00 in0.0 mm
04:23 PM 96.1°F35.6°C 57.7°F14.3°C 28% 3.8 mph 6.1 kmh 6.9 mph11.1 kmh 29.86 in1011.2 mb 0.00 in0.0 mm 0.00 in0.0 mm 0.00 in0.0 mm
04:28 PM 96.8°F36.0°C 58.3°F14.6°C 28% 2.2 mph NE3.5 kmh NE 6.0 mph9.7 kmh 29.86 in1011.2 mb 0.00 in0.0 mm 0.00 in0.0 mm 0.00 in0.0 mm
04:33 PM 96.3°F35.7°C 56.8°F13.8°C 27% 5.4 mph NE8.7 kmh NE 7.6 mph12.2 kmh 29.86 in1011.2 mb 0.00 in0.0 mm 0.00 in0.0 mm 0.00 in0.0 mm
04:38 PM 95.7°F35.4°C 58.5°F14.7°C 29% 0.7 mph S1.1 kmh S 9.2 mph14.8 kmh 29.86 in1011.2 mb 0.00 in0.0 mm 0.00 in0.0 mm 0.00 in0.0 mm
04:43 PM 95.5°F35.3°C 58.3°F14.6°C 29% 3.1 mph NE5.0 kmh NE 10.7 mph17.2 kmh 29.85 in1010.8 mb 0.00 in0.0 mm 0.00 in0.0 mm 0.00 in0.0 mm
04:48 PM 95.2°F35.1°C 57.9°F14.4°C 29% 4.5 mph 7.2 kmh 7.6 mph12.2 kmh 29.86 in1011.2 mb 0.00 in0.0 mm 0.00 in0.0 mm 0.00 in0.0 mm
04:54 PM 95.4°F35.2°C 58.1°F14.5°C 29% 4.5 mph NNW7.2 kmh NNW 6.9 mph11.1 kmh 29.85 in1010.8 mb 0.00 in0.0 mm 0.00 in0.0 mm 0.00 in0.0 mm
04:59 PM 95.7°F35.4°C 58.5°F14.7°C 29% 2.2 mph E3.5 kmh E 6.9 mph11.1 kmh 29.85 in1010.8 mb 0.00 in0.0 mm 0.00 in0.0 mm 0.00 in0.0 mm
05:04 PM 95.9°F35.5°C 57.6°F14.2°C 28% Calm Calm 6.0 mph9.7 kmh 29.85 in1010.8 mb 0.00 in0.0 mm 0.00 in0.0 mm 0.00 in0.0 mm
05:09 PM 96.4°F35.8°C 57.9°F14.4°C 28% 4.5 mph NE7.2 kmh NE 9.2 mph14.8 kmh 29.85 in1010.8 mb 0.00 in0.0 mm 0.00 in0.0 mm 0.00 in0.0 mm
05:14 PM 95.2°F35.1°C 57.9°F14.4°C 29% 5.4 mph NE8.7 kmh NE 8.3 mph13.4 kmh 29.85 in1010.8 mb 0.00 in0.0 mm 0.00 in0.0 mm 0.00 in0.0 mm
05:19 PM 94.6°F34.8°C 57.4°F14.1°C 29% 2.2 mph SE3.5 kmh SE 9.8 mph15.8 kmh 29.85 in1010.8 mb 0.00 in0.0 mm 0.00 in0.0 mm 0.00 in0.0 mm
05:25 PM 94.5°F34.7°C 58.3°F14.6°C 30% 5.4 mph 8.7 kmh 6.9 mph11.1 kmh 29.85 in1010.8 mb 0.00 in0.0 mm 0.00 in0.0 mm 0.00 in0.0 mm
05:30 PM 94.5°F34.7°C 57.4°F14.1°C 29% 3.1 mph SE5.0 kmh SE 9.2 mph14.8 kmh 29.85 in1010.8 mb 0.00 in0.0 mm 0.00 in0.0 mm 0.00 in0.0 mm
05:35 PM 94.8°F34.9°C 57.6°F14.2°C 29% 2.2 mph NE3.5 kmh NE 6.0 mph9.7 kmh 29.85 in1010.8 mb 0.00 in0.0 mm 0.00 in0.0 mm 0.00 in0.0 mm
05:40 PM 95.4°F35.2°C 58.1°F14.5°C 29% 4.5 mph NE7.2 kmh NE 6.9 mph11.1 kmh 29.85 in1010.8 mb 0.00 in0.0 mm 0.00 in0.0 mm 0.00 in0.0 mm
05:45 PM 94.8°F34.9°C 57.6°F14.2°C 29% 3.8 mph NE6.1 kmh NE 6.9 mph11.1 kmh 29.84 in1010.5 mb 0.00 in0.0 mm 0.00 in0.0 mm 0.00 in0.0 mm
05:50 PM 94.6°F34.8°C 58.5°F14.7°C 30% 3.8 mph NE6.1 kmh NE 9.8 mph15.8 kmh 29.84 in1010.5 mb 0.00 in0.0 mm 0.00 in0.0 mm 0.00 in0.0 mm
05:56 PM 93.9°F34.4°C 59.5°F15.3°C 32% 5.4 mph NW8.7 kmh NW 10.7 mph17.2 kmh 29.84 in1010.5 mb 0.00 in0.0 mm 0.00 in0.0 mm 0.00 in0.0 mm
06:01 PM 93.4°F34.1°C 58.3°F14.6°C 31% 6.9 mph 11.1 kmh 9.8 mph15.8 kmh 29.84 in1010.5 mb 0.00 in0.0 mm 0.00 in0.0 mm 0.00 in0.0 mm
06:06 PM 93.0°F33.9°C 57.9°F14.4°C 31% 3.1 mph 5.0 kmh 9.8 mph15.8 kmh 29.84 in1010.5 mb 0.00 in0.0 mm 0.00 in0.0 mm 0.00 in0.0 mm
06:11 PM 93.4°F34.1°C 58.3°F14.6°C 31% 3.8 mph 6.1 kmh 9.8 mph15.8 kmh 29.84 in1010.5 mb 0.00 in0.0 mm 0.00 in0.0 mm 0.00 in0.0 mm
06:16 PM 93.4°F34.1°C 57.4°F14.1°C 30% 4.5 mph WSW7.2 kmh WSW 9.2 mph14.8 kmh 29.84 in1010.5 mb 0.00 in0.0 mm 0.00 in0.0 mm 0.00 in0.0 mm
06:21 PM 92.8°F33.8°C 56.8°F13.8°C 30% 1.6 mph NE2.6 kmh NE 8.3 mph13.4 kmh 29.84 in1010.5 mb 0.00 in0.0 mm 0.00 in0.0 mm 0.00 in0.0 mm
06:27 PM 93.4°F34.1°C 57.4°F14.1°C 30% 2.2 mph E3.5 kmh E 8.3 mph13.4 kmh 29.84 in1010.5 mb 0.00 in0.0 mm 0.00 in0.0 mm 0.00 in0.0 mm
06:32 PM 92.8°F33.8°C 54.9°F12.7°C 28% 4.5 mph NNE7.2 kmh NNE 7.6 mph12.2 kmh 29.84 in1010.5 mb 0.00 in0.0 mm 0.00 in0.0 mm 0.00 in0.0 mm
06:37 PM 92.8°F33.8°C 54.9°F12.7°C 28% 2.2 mph 3.5 kmh 6.0 mph9.7 kmh 29.84 in1010.5 mb 0.00 in0.0 mm 0.00 in0.0 mm 0.00 in0.0 mm
06:42 PM 92.8°F33.8°C 56.8°F13.8°C 30% 4.5 mph NW7.2 kmh NW 6.9 mph11.1 kmh 29.84 in1010.5 mb 0.00 in0.0 mm 0.00 in0.0 mm 0.00 in0.0 mm
06:47 PM 92.5°F33.6°C 56.5°F13.6°C 30% 3.1 mph 5.0 kmh 6.9 mph11.1 kmh 29.84 in1010.5 mb 0.00 in0.0 mm 0.00 in0.0 mm 0.00 in0.0 mm
06:52 PM 92.3°F33.5°C 56.3°F13.5°C 30% 3.8 mph NE6.1 kmh NE 6.0 mph9.7 kmh 29.84 in1010.5 mb 0.00 in0.0 mm 0.00 in0.0 mm 0.00 in0.0 mm
06:58 PM 91.9°F33.3°C 57.9°F14.4°C 32% 2.2 mph NE3.5 kmh NE 4.5 mph7.2 kmh 29.84 in1010.5 mb 0.00 in0.0 mm 0.00 in0.0 mm 0.00 in0.0 mm
07:03 PM 91.6°F33.1°C 57.6°F14.2°C 32% 3.1 mph NW5.0 kmh NW 4.5 mph7.2 kmh 29.84 in1010.5 mb 0.00 in0.0 mm 0.00 in0.0 mm 0.00 in0.0 mm
07:08 PM 91.4°F33.0°C 58.3°F14.6°C 33% 0.7 mph NE1.1 kmh NE 4.5 mph7.2 kmh 29.85 in1010.8 mb 0.00 in0.0 mm 0.00 in0.0 mm 0.00 in0.0 mm
07:13 PM 91.0°F32.8°C 57.9°F14.4°C 33% 2.2 mph NE3.5 kmh NE 3.8 mph6.1 kmh 29.85 in1010.8 mb 0.00 in0.0 mm 0.00 in0.0 mm 0.00 in0.0 mm
07:18 PM 91.0°F32.8°C 57.9°F14.4°C 33% 1.6 mph NE2.6 kmh NE 3.1 mph5.0 kmh 29.85 in1010.8 mb 0.00 in0.0 mm 0.00 in0.0 mm 0.00 in0.0 mm
07:23 PM 90.5°F32.5°C 58.3°F14.6°C 34% 1.6 mph NE2.6 kmh NE 4.5 mph7.2 kmh 29.85 in1010.8 mb 0.00 in0.0 mm 0.00 in0.0 mm 0.00 in0.0 mm
07:29 PM 90.0°F32.2°C 58.6°F14.8°C 35% 0.7 mph 1.1 kmh 3.1 mph5.0 kmh 29.85 in1010.8 mb 0.00 in0.0 mm 0.00 in0.0 mm 0.00 in0.0 mm
07:34 PM 89.1°F31.7°C 58.6°F14.8°C 36% 0.7 mph NE1.1 kmh NE 3.8 mph6.1 kmh 29.85 in1010.8 mb 0.00 in0.0 mm 0.00 in0.0 mm 0.00 in0.0 mm
07:39 PM 88.2°F31.2°C 57.9°F14.4°C 36% 0.7 mph 1.1 kmh 3.1 mph5.0 kmh 29.85 in1010.8 mb 0.00 in0.0 mm 0.00 in0.0 mm 0.00 in0.0 mm
07:44 PM 88.2°F31.2°C 58.6°F14.8°C 37% 0.7 mph 1.1 kmh 2.2 mph3.5 kmh 29.85 in1010.8 mb 0.00 in0.0 mm 0.00 in0.0 mm 0.00 in0.0 mm
07:49 PM 87.8°F31.0°C 59.0°F15.0°C 38% 0.7 mph NW1.1 kmh NW 2.2 mph3.5 kmh 29.85 in1010.8 mb 0.00 in0.0 mm 0.00 in0.0 mm 0.00 in0.0 mm
07:54 PM 87.1°F30.6°C 58.5°F14.7°C 38% Calm Calm 1.6 mph2.6 kmh 29.85 in1010.8 mb 0.00 in0.0 mm 0.00 in0.0 mm 0.00 in0.0 mm
08:00 PM 86.4°F30.2°C 59.2°F15.1°C 40% Calm Calm 1.6 mph2.6 kmh 29.86 in1011.2 mb 0.00 in0.0 mm 0.00 in0.0 mm 0.00 in0.0 mm
08:05 PM 85.6°F29.8°C 58.5°F14.7°C 40% 0.7 mph W1.1 kmh W 2.2 mph3.5 kmh 29.86 in1011.2 mb 0.00 in0.0 mm 0.00 in0.0 mm 0.00 in0.0 mm
08:10 PM 84.9°F29.4°C 59.2°F15.1°C 42% 1.6 mph SW2.6 kmh SW 2.2 mph3.5 kmh 29.86 in1011.2 mb 0.00 in0.0 mm 0.00 in0.0 mm 0.00 in0.0 mm
08:15 PM 84.2°F29.0°C 58.6°F14.8°C 42% 0.7 mph SW1.1 kmh SW 2.2 mph3.5 kmh 29.86 in1011.2 mb 0.00 in0.0 mm 0.00 in0.0 mm 0.00 in0.0 mm
08:20 PM 83.7°F28.7°C 58.8°F14.9°C 43% Calm Calm 1.6 mph2.6 kmh 29.86 in1011.2 mb 0.00 in0.0 mm 0.00 in0.0 mm 0.00 in0.0 mm
08:25 PM 83.3°F28.5°C 58.5°F14.7°C 43% 0.7 mph W1.1 kmh W 1.6 mph2.6 kmh 29.87 in1011.5 mb 0.00 in0.0 mm 0.00 in0.0 mm 0.00 in0.0 mm
08:31 PM 83.3°F28.5°C 59.2°F15.1°C 44% Calm Calm 1.6 mph2.6 kmh 29.86 in1011.2 mb 0.00 in0.0 mm 0.00 in0.0 mm 0.00 in0.0 mm
08:36 PM 82.9°F28.3°C 59.4°F15.2°C 45% Calm Calm 1.6 mph2.6 kmh 29.86 in1011.2 mb 0.00 in0.0 mm 0.00 in0.0 mm 0.00 in0.0 mm
08:41 PM 82.9°F28.3°C 60.1°F15.6°C 46% Calm Calm 1.6 mph2.6 kmh 29.87 in1011.5 mb 0.00 in0.0 mm 0.00 in0.0 mm 0.00 in0.0 mm
08:46 PM 82.6°F28.1°C 59.7°F15.4°C 46% Calm Calm 1.6 mph2.6 kmh 29.87 in1011.5 mb 0.00 in0.0 mm 0.00 in0.0 mm 0.00 in0.0 mm
08:51 PM 82.0°F27.8°C 60.4°F15.8°C 48% 0.7 mph SW1.1 kmh SW 1.6 mph2.6 kmh 29.87 in1011.5 mb 0.00 in0.0 mm 0.00 in0.0 mm 0.00 in0.0 mm
08:56 PM 81.7°F27.6°C 60.1°F15.6°C 48% Calm Calm 1.6 mph2.6 kmh 29.87 in1011.5 mb 0.00 in0.0 mm 0.00 in0.0 mm 0.00 in0.0 mm
09:02 PM 81.1°F27.3°C 60.1°F15.6°C 49% 0.7 mph S1.1 kmh S 1.6 mph2.6 kmh 29.87 in1011.5 mb 0.00 in0.0 mm 0.00 in0.0 mm 0.00 in0.0 mm
09:07 PM 80.6°F27.0°C 59.7°F15.4°C 49% Calm Calm 1.6 mph2.6 kmh 29.87 in1011.5 mb 0.00 in0.0 mm 0.00 in0.0 mm 0.00 in0.0 mm
09:12 PM 80.4°F26.9°C 59.5°F15.3°C 49% 0.7 mph SW1.1 kmh SW 1.6 mph2.6 kmh 29.88 in1011.9 mb 0.00 in0.0 mm 0.00 in0.0 mm 0.00 in0.0 mm
09:17 PM 80.2°F26.8°C 59.9°F15.5°C 50% 0.7 mph SW1.1 kmh SW 1.6 mph2.6 kmh 29.87 in1011.5 mb 0.00 in0.0 mm 0.00 in0.0 mm 0.00 in0.0 mm
09:22 PM 79.7°F26.5°C 59.4°F15.2°C 50% 0.7 mph SW1.1 kmh SW 1.6 mph2.6 kmh 29.88 in1011.9 mb 0.00 in0.0 mm 0.00 in0.0 mm 0.00 in0.0 mm
09:28 PM 79.2°F26.2°C 59.0°F15.0°C 50% 0.7 mph W1.1 kmh W 1.6 mph2.6 kmh 29.88 in1011.9 mb 0.00 in0.0 mm 0.00 in0.0 mm 0.00 in0.0 mm
09:33 PM 78.8°F26.0°C 59.2°F15.1°C 51% Calm Calm 1.6 mph2.6 kmh 29.88 in1011.9 mb 0.00 in0.0 mm 0.00 in0.0 mm 0.00 in0.0 mm
09:38 PM 78.1°F25.6°C 58.5°F14.7°C 51% 0.7 mph SW1.1 kmh SW 1.6 mph2.6 kmh 29.88 in1011.9 mb 0.00 in0.0 mm 0.00 in0.0 mm 0.00 in0.0 mm
09:43 PM 77.9°F25.5°C 57.7°F14.3°C 50% Calm Calm 1.6 mph2.6 kmh 29.88 in1011.9 mb 0.00 in0.0 mm 0.00 in0.0 mm 0.00 in0.0 mm
09:48 PM 78.1°F25.6°C 58.5°F14.7°C 51% 6.0 mph E9.7 kmh E 8.3 mph13.4 kmh 29.88 in1011.9 mb 0.00 in0.0 mm 0.00 in0.0 mm 0.00 in0.0 mm
09:53 PM 78.6°F25.9°C 61.5°F16.4°C 56% 2.2 mph NE3.5 kmh NE 7.6 mph12.2 kmh 29.89 in1012.2 mb 0.00 in0.0 mm 0.00 in0.0 mm 0.00 in0.0 mm
09:59 PM 78.4°F25.8°C 61.5°F16.4°C 56% 3.1 mph E5.0 kmh E 5.4 mph8.7 kmh 29.89 in1012.2 mb 0.00 in0.0 mm 0.00 in0.0 mm 0.00 in0.0 mm
10:04 PM 78.4°F25.8°C 61.0°F16.1°C 55% 0.7 mph SE1.1 kmh SE 4.5 mph7.2 kmh 29.89 in1012.2 mb 0.00 in0.0 mm 0.00 in0.0 mm 0.00 in0.0 mm
10:09 PM 78.6°F25.9°C 61.2°F16.2°C 55% 0.7 mph SE1.1 kmh SE 2.2 mph3.5 kmh 29.88 in1011.9 mb 0.00 in0.0 mm 0.00 in0.0 mm 0.00 in0.0 mm
10:14 PM 79.0°F26.1°C 61.5°F16.4°C 55% 1.6 mph NE2.6 kmh NE 3.1 mph5.0 kmh 29.89 in1012.2 mb 0.00 in0.0 mm 0.00 in0.0 mm 0.00 in0.0 mm
10:19 PM 79.0°F26.1°C 61.9°F16.6°C 56% 0.7 mph NE1.1 kmh NE 2.2 mph3.5 kmh 29.88 in1011.9 mb 0.00 in0.0 mm 0.00 in0.0 mm 0.00 in0.0 mm
10:24 PM 77.9°F25.5°C 61.5°F16.4°C 57% 1.6 mph NE2.6 kmh NE 3.1 mph5.0 kmh 29.88 in1011.9 mb 0.00 in0.0 mm 0.00 in0.0 mm 0.00 in0.0 mm
10:30 PM 78.1°F25.6°C 60.6°F15.9°C 55% 1.6 mph E2.6 kmh E 3.1 mph5.0 kmh 29.88 in1011.9 mb 0.00 in0.0 mm 0.00 in0.0 mm 0.00 in0.0 mm
10:35 PM 77.7°F25.4°C 60.8°F16.0°C 56% 0.7 mph NE1.1 kmh NE 2.2 mph3.5 kmh 29.88 in1011.9 mb 0.00 in0.0 mm 0.00 in0.0 mm 0.00 in0.0 mm
10:40 PM 77.0°F25.0°C 60.6°F15.9°C 57% 0.7 mph NE1.1 kmh NE 2.2 mph3.5 kmh 29.88 in1011.9 mb 0.00 in0.0 mm 0.00 in0.0 mm 0.00 in0.0 mm
10:45 PM 77.0°F25.0°C 61.2°F16.2°C 58% 2.2 mph E3.5 kmh E 3.1 mph5.0 kmh 29.89 in1012.2 mb 0.00 in0.0 mm 0.00 in0.0 mm 0.00 in0.0 mm
10:50 PM 77.0°F25.0°C 61.5°F16.4°C 59% 2.2 mph 3.5 kmh 5.4 mph8.7 kmh 29.89 in1012.2 mb 0.00 in0.0 mm 0.00 in0.0 mm 0.00 in0.0 mm
10:55 PM 77.0°F25.0°C 61.5°F16.4°C 59% 0.7 mph E1.1 kmh E 3.1 mph5.0 kmh 29.89 in1012.2 mb 0.00 in0.0 mm 0.00 in0.0 mm 0.00 in0.0 mm
11:01 PM 77.0°F25.0°C 62.6°F17.0°C 61% 2.2 mph E3.5 kmh E 3.8 mph6.1 kmh 29.89 in1012.2 mb 0.00 in0.0 mm 0.00 in0.0 mm 0.00 in0.0 mm
11:06 PM 77.0°F25.0°C 63.0°F17.2°C 62% 2.2 mph SE3.5 kmh SE 3.8 mph6.1 kmh 29.89 in1012.2 mb 0.00 in0.0 mm 0.00 in0.0 mm 0.00 in0.0 mm
11:11 PM 77.0°F25.0°C 63.5°F17.5°C 63% 3.1 mph E5.0 kmh E 3.8 mph6.1 kmh 29.89 in1012.2 mb 0.00 in0.0 mm 0.00 in0.0 mm 0.00 in0.0 mm
11:16 PM 77.0°F25.0°C 63.5°F17.5°C 63% 2.2 mph ENE3.5 kmh ENE 5.4 mph8.7 kmh 29.89 in1012.2 mb 0.00 in0.0 mm 0.00 in0.0 mm 0.00 in0.0 mm
11:21 PM 77.0°F25.0°C 63.9°F17.7°C 64% 2.2 mph E3.5 kmh E 4.5 mph7.2 kmh 29.89 in1012.2 mb 0.00 in0.0 mm 0.00 in0.0 mm 0.00 in0.0 mm
11:26 PM 77.0°F25.0°C 63.9°F17.7°C 64% 1.6 mph E2.6 kmh E 4.5 mph7.2 kmh 29.89 in1012.2 mb 0.00 in0.0 mm 0.00 in0.0 mm 0.00 in0.0 mm
11:32 PM 77.0°F25.0°C 64.4°F18.0°C 65% 3.1 mph ENE5.0 kmh ENE 5.4 mph8.7 kmh 29.89 in1012.2 mb 0.00 in0.0 mm 0.00 in0.0 mm 0.00 in0.0 mm
11:37 PM 77.0°F25.0°C 64.8°F18.2°C 66% 3.1 mph E5.0 kmh E 5.4 mph8.7 kmh 29.90 in1012.5 mb 0.00 in0.0 mm 0.00 in0.0 mm 0.00 in0.0 mm
11:42 PM 76.8°F24.9°C 64.9°F18.3°C 67% 2.2 mph E3.5 kmh E 4.5 mph7.2 kmh 29.90 in1012.5 mb 0.00 in0.0 mm 0.00 in0.0 mm 0.00 in0.0 mm
11:47 PM 76.8°F24.9°C 65.5°F18.6°C 68% 2.2 mph E3.5 kmh E 3.1 mph5.0 kmh 29.90 in1012.5 mb 0.00 in0.0 mm 0.00 in0.0 mm 0.00 in0.0 mm
11:52 PM 76.5°F24.7°C 65.5°F18.6°C 69% 2.2 mph E3.5 kmh E 3.8 mph6.1 kmh 29.90 in1012.5 mb 0.00 in0.0 mm 0.00 in0.0 mm 0.00 in0.0 mm
11:57 PM 76.3°F24.6°C 65.3°F18.5°C 69% 2.2 mph NE3.5 kmh NE 4.5 mph7.2 kmh 29.90 in1012.5 mb 0.00 in0.0 mm 0.00 in0.0 mm 0.00 in0.0 mm